Flight Track Log - Related Links

Times and Time Zones

All times are in EST time to prevent confusion due to time zone crossing. See the AFL150 flight status page for this flight to view local times or setup timezone preferences in your user account.

Time Position Orientation Groundspeed Altitude Reporting Facility
EST Latitude Longitude Course Direction KTS MPH feet Rate Location/Type
Fri 05:10:00 AM 56.0614 37.0925 312° West  Level Estimated
Fri 05:11:00 AM 56.1337 36.9172 314° West  Level Estimated
Fri 05:12:00 AM 56.2549 36.8996 355° North  Level FlightAware Approximate
Fri 05:13:00 AM 56.3270 36.7230 315° West  Level Estimated
Fri 05:14:00 AM 56.4388 36.6366 337° Northwest  Level FlightAware Approximate
Fri 05:15:00 AM 56.5104 36.4586 312° West  Level Estimated
Fri 05:16:00 AM 56.5818 36.2800 312° West  Level Estimated
Fri 05:17:00 AM 56.6872 36.1693 330° Northwest  Level FlightAware Approximate
Fri 05:18:00 AM 56.7581 35.9893 314° West  Level Estimated
Fri 05:19:00 AM 56.8592 35.8657 326° Northwest  Level FlightAware Approximate
Fri 05:20:00 AM 56.9297 35.6843 314° West  Level Estimated
Fri 05:21:00 AM 57.0275 35.5513 324° Northwest  Level FlightAware Approximate
Fri 05:22:00 AM 57.0975 35.3685 313° West  Level Estimated
Fri 05:23:00 AM 57.1673 35.1849 311° West  Level Estimated
Fri 05:24:00 AM 57.2369 35.0007 315° West  Level Estimated
Fri 05:25:00 AM 57.3454 34.8993 333° Northwest  Level FlightAware Approximate
Fri 05:26:00 AM 57.4154 34.7113 311° West  Level Estimated
Fri 05:27:00 AM 57.4851 34.5226 313° West  Level Estimated
Fri 05:28:00 AM 57.5544 34.3332 312° West  Level Estimated
Fri 05:29:00 AM 57.6379 34.1642 313° West  Level FlightAware Approximate
Fri 05:30:00 AM 57.7211 33.9944 313° West  Level FlightAware Approximate
Fri 05:31:00 AM 57.8040 33.8239 312° West  Level FlightAware Approximate
Fri 05:32:00 AM 57.8868 33.6526 312° West  Level FlightAware Approximate
Fri 05:33:00 AM 57.9693 33.4805 312° West  Level FlightAware Approximate
Fri 05:34:00 AM 58.0516 33.3075 312° West  Level FlightAware Approximate
Fri 05:35:00 AM 58.1336 33.1338 312° West  Level FlightAware Approximate
Fri 05:36:00 AM 58.2154 32.9593 312° West  Level FlightAware Approximate
Fri 05:37:00 AM 58.2970 32.7840 312° West  Level FlightAware Approximate
Fri 05:38:00 AM 58.3783 32.6079 311° West  Level FlightAware Approximate
Fri 05:39:00 AM 58.4594 32.4310 311° West  Level FlightAware Approximate
Fri 05:40:00 AM 58.5402 32.2532 311° West  Level FlightAware Approximate
Fri 05:41:00 AM 58.6208 32.0746 311° West  Level FlightAware Approximate
Fri 05:42:00 AM 58.7011 31.8953 311° West  Level FlightAware Approximate
Fri 05:43:00 AM 58.7812 31.7150 311° West  Level FlightAware Approximate
Fri 05:44:00 AM 58.8611 31.5340 310° West  Level FlightAware Approximate
Fri 05:45:00 AM 58.9407 31.3521 310° West  Level FlightAware Approximate
Fri 05:46:00 AM 59.0200 31.1693 310° West  Level FlightAware Approximate
Fri 05:47:00 AM 59.0990 30.9858 310° West  Level FlightAware Approximate
Fri 05:48:00 AM 59.1779 30.8014 310° West  Level FlightAware Approximate
Fri 05:49:00 AM 59.2564 30.6161 310° West  Level FlightAware Approximate
Fri 05:50:00 AM 59.3347 30.4300 310° West  Level FlightAware Approximate
Fri 05:51:00 AM 59.4127 30.2430 309° West  Level FlightAware Approximate
Fri 05:52:00 AM 59.4904 30.0551 309° West  Level FlightAware Approximate
Fri 05:53:00 AM 59.5679 29.8664 309° West  Level FlightAware Approximate
Fri 05:54:00 AM 59.6451 29.6768 309° West  Level FlightAware Approximate
Fri 05:55:00 AM 59.7220 29.4864 309° West  Level FlightAware Approximate
Fri 05:56:00 AM 59.7987 29.2950 309° West  Level FlightAware Approximate
Fri 05:57:00 AM 59.8751 29.1028 308° West  Level FlightAware Approximate
Fri 05:58:00 AM 59.9511 28.9097 308° West  Level FlightAware Approximate
Fri 05:59:00 AM 60.0270 28.7158 308° West  Level FlightAware Approximate
Fri 06:00:00 AM 60.1025 28.5209 308° West  Level FlightAware Approximate
Fri 06:01:00 AM 60.1777 28.3251 308° West  Level FlightAware Approximate
Fri 06:02:00 AM 60.2527 28.1285 308° West  Level FlightAware Approximate
Fri 06:03:00 AM 60.3273 27.9309 307° West  Level FlightAware Approximate
Fri 06:04:00 AM 60.4017 27.7324 307° West  Level FlightAware Approximate
Fri 06:05:00 AM 60.4757 27.5331 307° West  Level FlightAware Approximate
Fri 06:06:00 AM 60.5495 27.3328 307° West  Level FlightAware Approximate
Fri 06:07:00 AM 60.6229 27.1316 307° West  Level FlightAware Approximate
Fri 06:08:00 AM 60.6961 26.9295 307° West  Level FlightAware Approximate
Fri 06:09:00 AM 60.7690 26.7264 306° West  Level FlightAware Approximate
Fri 06:10:00 AM 60.8415 26.5225 306° West  Level FlightAware Approximate
Fri 06:10:08 AM 56.7344 26.6529 306° West 429 494 34,000  Level FlightAware ADS-B
Fri 06:12:00 AM 56.8423 26.2824 298° West  Level Estimated
Fri 06:13:00 AM 56.8996 26.0830 298° West  Level Estimated
Fri 06:14:00 AM 56.9567 25.8831 298° West  Level Estimated
Fri 06:15:00 AM 57.0134 25.6825 298° West  Level Estimated
Fri 06:15:22 AM 56.6330 23.9281 298° West 432 497 34,000  Level FlightAware ADS-B (EPSY / SZY)
Fri 06:16:12 AM 56.6239 23.7453 265° West 429 494 34,000  Level FlightAware ADS-B (EPSY / SZY)
Fri 06:16:43 AM 56.6183 23.6337 265° West 425 489 34,000  Level FlightAware ADS-B (EPSY / SZY)
Fri 06:17:25 AM 56.6106 23.4853 265° West 423 487 34,000  Level FlightAware ADS-B (EPSY / SZY)
Fri 06:17:56 AM 56.6052 23.3803 265° West 422 486 34,000  Level FlightAware ADS-B (EPSY / SZY)
Fri 06:18:26 AM 56.5997 23.2755 265° West 422 486 34,000  Level FlightAware ADS-B (EPSY / SZY)
Fri 06:19:00 AM 56.5952 23.1923 264° West 423 487 34,000  Level FlightAware ADS-B
Fri 06:19:33 AM 56.5870 23.0433 264° West 423 487 34,000  Level FlightAware ADS-B (EPSY / SZY)
Fri 06:20:06 AM 56.5803 22.9235 264° West 424 488 34,000  Level FlightAware ADS-B (EPSY / SZY)
Fri 06:20:36 AM 56.5742 22.8167 264° West 424 488 34,000  Level FlightAware ADS-B (EPSY / SZY)
Fri 06:21:07 AM 56.5679 22.7077 264° West 423 487 34,000  Level FlightAware ADS-B
Fri 06:21:59 AM 56.5619 22.6064 264° West 422 486 34,000  Level FlightAware ADS-B (EPSY / SZY)
Fri 06:22:32 AM 56.5502 22.4083 264° West 419 482 34,000  Level FlightAware ADS-B (EPSY / SZY)
Fri 06:23:04 AM 56.5474 22.3631 264° West 416 479 34,000  Level FlightAware ADS-B
Fri 06:23:41 AM 56.5357 22.1734 264° West 416 479 34,000  Level FlightAware ADS-B (EPSY / SZY)
Fri 06:24:14 AM 56.5284 22.0578 264° West 418 481 34,000  Level FlightAware ADS-B (EPSY / SZY)
Fri 06:24:53 AM 56.5200 21.9256 263° West 417 480 34,000  Level FlightAware ADS-B (EPSY / SZY)
Fri 06:25:24 AM 56.5127 21.8161 263° West 415 478 34,000  Level FlightAware ADS-B (EPSY / SZY)
Fri 06:26:06 AM 56.5030 21.6706 263° West 416 479 34,000  Level FlightAware ADS-B (EPSY / SZY)
Fri 06:26:36 AM 56.4961 21.5684 263° West 417 480 34,000  Level FlightAware ADS-B (EPSY / SZY)
Fri 06:27:07 AM 56.4891 21.4645 263° West 417 480 34,000  Level FlightAware ADS-B (EPSY / SZY)
Fri 06:27:47 AM 56.4793 21.3232 263° West 417 480 34,000  Level FlightAware ADS-B (EPSY / SZY)
Fri 06:28:17 AM 56.4722 21.2218 263° West 415 478 34,000  Level FlightAware ADS-B (EPSY / SZY)
Fri 06:28:53 AM 56.4635 21.0985 263° West 413 475 34,000  Level FlightAware ADS-B (EPSY / SZY)
Fri 06:29:33 AM 56.4536 20.9607 263° West 411 473 34,000  Level FlightAware ADS-B (EPSY / SZY)
Fri 06:31:06 AM 56.4301 20.6434 262° West 410 472 34,000  Level FlightAware ADS-B (EPSY / SZY)
Fri 06:31:37 AM 56.4228 20.5476 262° West 410 472 34,000  Level FlightAware ADS-B (EPSY / SZY)
Fri 06:32:19 AM 56.4118 20.4041 262° West 410 472 34,000  Level FlightAware ADS-B (EPSY / SZY)
Fri 06:32:49 AM 56.4034 20.2977 262° West 408 470 34,000  Level FlightAware ADS-B (EPSY / SZY)
Fri 06:33:19 AM 56.3954 20.1959 262° West 408 470 34,000  Level FlightAware ADS-B (EPSY / SZY)
Fri 06:33:59 AM 56.3848 20.0625 262° West 405 466 34,000  Level FlightAware ADS-B (EPSY / SZY)
Fri 06:34:29 AM 56.3767 19.9623 262° West 406 467 34,000  Level FlightAware ADS-B (EPSY / SZY)
Fri 06:35:07 AM 56.3663 19.8345 262° West 404 465 34,000  Level FlightAware ADS-B (EPSY / SZY)
Fri 06:37:00 AM 56.4557 19.4477 293° West  Level Estimated
Fri 06:38:00 AM 56.5027 19.2416 293° West  Level Estimated
Fri 06:39:00 AM 56.5493 19.0350 292° West  Level Estimated
Fri 06:40:00 AM 56.5956 18.8279 292° West  Level Estimated
Fri 06:41:00 AM 56.6416 18.6203 292° West  Level Estimated
Fri 06:42:00 AM 56.6872 18.4122 292° West  Level Estimated
Fri 06:43:00 AM 56.7324 18.2036 292° West  Level Estimated
Fri 06:44:00 AM 56.7773 17.9944 291° West  Level Estimated
Fri 06:45:00 AM 56.8219 17.7848 291° West  Level Estimated
Fri 06:46:00 AM 56.8661 17.5747 291° West  Level Estimated
Fri 06:47:00 AM 56.9099 17.3641 291° West  Level Estimated
Fri 06:47:57 AM 56.2456 17.2736 291° West 399 459 34,000  Level FlightAware ADS-B
Fri 06:50:00 AM 56.3348 16.8481 291° West  Level Estimated
Fri 06:50:06 AM 56.2590 16.8479 291° West 401 461 34,000  Level FlightAware ADS-B
Fri 06:52:00 AM 56.3404 16.4527 291° West  Level Estimated
Fri 06:53:00 AM 56.3827 16.2439 290° West  Level Estimated
Fri 06:54:00 AM 56.4246 16.0347 290° West  Level Estimated
Fri 06:55:00 AM 56.4663 15.8251 290° West  Level Estimated
Fri 06:55:28 AM 56.2846 15.7841 290° West 400 460 34,000  Level FlightAware ADS-B
Fri 06:56:04 AM 56.2871 15.6613 272° West 398 458 34,000  Level FlightAware ADS-B
Fri 06:56:45 AM 56.2895 15.5295 272° West 398 458 34,000  Level FlightAware ADS-B
Fri 06:57:44 AM 56.2928 15.3327 272° West 400 460 34,000  Level FlightAware ADS-B
Fri 06:58:15 AM 56.2944 15.2307 272° West 401 461 34,000  Level FlightAware ADS-B
Fri 06:58:51 AM 56.2962 15.1077 272° West 403 464 34,000  Level FlightAware ADS-B
Fri 06:59:22 AM 56.2977 15.0072 271° West 404 465 34,000  Level FlightAware ADS-B
Fri 07:00:21 AM 56.3001 14.8106 271° West 406 467 34,000  Level FlightAware ADS-B
Fri 07:00:51 AM 56.3013 14.7097 271° West 408 470 34,000  Level FlightAware ADS-B
Fri 07:01:35 AM 56.3029 14.5580 271° West 408 470 34,000  Level FlightAware ADS-B
Fri 07:04:00 AM 56.3974 14.0487 289° West  Level Estimated
Fri 07:04:45 AM 56.3076 13.9178 289° West 408 470 34,000  Level FlightAware ADS-B
Fri 07:05:41 AM 56.3083 13.7248 270° West 411 473 34,000  Level FlightAware ADS-B
Fri 07:08:00 AM 56.3958 13.2348 288° West  Level Estimated
Fri 07:09:00 AM 56.4329 13.0226 288° West  Level Estimated
Fri 07:10:00 AM 56.4697 12.8100 287° West  Level Estimated
Fri 07:11:00 AM 56.5061 12.5970 287° West  Level Estimated
Fri 07:12:00 AM 56.5422 12.3836 287° West  Level Estimated
Fri 07:13:00 AM 56.5779 12.1698 287° West  Level Estimated
Fri 07:14:00 AM 56.6133 11.9555 287° West  Level Estimated
Fri 07:15:00 AM 56.6482 11.7409 287° West  Level Estimated
Fri 07:16:00 AM 56.6828 11.5258 286° West  Level Estimated
Fri 07:17:00 AM 56.7170 11.3104 286° West  Level Estimated
Fri 07:18:00 AM 56.7509 11.0946 286° West  Level Estimated
Fri 07:18:41 AM 56.2874 11.0197 286° West 424 488 34,000  Level FlightAware ADS-B
Fri 07:19:30 AM 56.2838 10.8393 268° West 426 490 34,000  Level FlightAware ADS-B
Fri 07:20:01 AM 56.2814 10.7299 268° West 427 491 34,000  Level FlightAware ADS-B
Fri 07:20:41 AM 56.2786 10.5903 268° West 427 491 34,000  Level FlightAware ADS-B
Fri 07:21:34 AM 56.2743 10.4024 268° West 426 490 34,000  Level FlightAware ADS-B
Fri 07:22:04 AM 56.2718 10.2968 268° West 426 490 34,000  Level FlightAware ADS-B
Fri 07:22:34 AM 56.2691 10.1893 267° West 430 495 34,000  Level FlightAware ADS-B
Fri 07:23:12 AM 56.2656 10.0564 267° West 430 495 34,000  Level FlightAware ADS-B
Fri 07:23:42 AM 56.2628 9.9503 267° West 429 494 34,000  Level FlightAware ADS-B
Fri 07:24:12 AM 56.2598 9.8441 267° West 430 495 34,000  Level FlightAware ADS-B
Fri 07:24:43 AM 56.2565 9.7287 267° West 431 496 34,000  Level FlightAware ADS-B
Fri 07:25:24 AM 56.2524 9.5876 267° West 430 495 34,000  Level FlightAware ADS-B
Fri 07:25:56 AM 56.2488 9.4712 267° West 430 495 34,000  Level FlightAware ADS-B
Fri 07:26:26 AM 56.2453 9.3642 267° West 430 495 34,000  Level FlightAware ADS-B
Fri 07:26:57 AM 56.2417 9.2546 267° West 432 497 34,000  Level FlightAware ADS-B
Fri 07:27:36 AM 56.2370 9.1110 267° West 433 498 34,000  Level FlightAware ADS-B
Fri 07:28:07 AM 56.2331 9.0026 266° West 433 498 34,000  Level FlightAware ADS-B
Fri 07:28:37 AM 56.2294 8.8986 266° West 433 498 34,000  Level FlightAware ADS-B
Fri 07:29:17 AM 56.2242 8.7544 266° West 433 498 34,000  Level FlightAware ADS-B
Fri 07:30:20 AM 56.2153 8.5193 266° West 436 502 34,000  Level FlightAware ADS-B
Fri 07:30:50 AM 56.2113 8.4148 266° West 434 499 34,000  Level FlightAware ADS-B
Fri 07:31:25 AM 56.2059 8.2839 266° West 437 503 34,000  Level FlightAware ADS-B
Fri 07:32:03 AM 56.2005 8.1503 266° West 437 503 34,000  Level FlightAware ADS-B
Fri 07:32:33 AM 56.1956 8.0385 266° West 437 503 34,000  Level FlightAware ADS-B
Fri 07:33:35 AM 56.1857 7.8138 266° West 436 502 34,000  Level FlightAware ADS-B
Fri 07:34:06 AM 56.1810 7.7106 265° West 436 502 34,000  Level FlightAware ADS-B
Fri 07:36:00 AM 56.2345 7.3011 283° West  Level Estimated
Fri 07:37:00 AM 56.2621 7.0851 283° West  Level Estimated
Fri 07:38:00 AM 56.2893 6.8688 283° West  Level Estimated
Fri 07:39:00 AM 56.3161 6.6522 283° West  Level Estimated
Fri 07:40:00 AM 56.3426 6.4354 282° West  Level Estimated
Fri 07:41:00 AM 56.3687 6.2182 282° West  Level Estimated
Fri 07:42:00 AM 56.3944 6.0007 282° West  Level Estimated
Fri 07:43:00 AM 56.4197 5.7829 282° West  Level Estimated
Fri 07:44:00 AM 56.4446 5.5648 282° West  Level Estimated
Fri 07:44:44 AM 56.0530 5.4063 282° West 1 1 34,000  Level FlightAware UK
Fri 07:47:01 AM 56.0214 4.9122 264° West 468 539 34,000  Level FlightAware UK
Fri 07:47:31 AM 56.0136 4.8049 263° West 476 548 34,000  Level FlightAware UK
Fri 07:48:07 AM 56.0046 4.6752 263° West 476 548 34,000  Level FlightAware UK
Fri 07:48:37 AM 55.9971 4.5677 263° West 472 543 34,000  Level FlightAware UK
Fri 07:49:07 AM 55.9895 4.4601 263° West 472 543 34,000  Level FlightAware UK
Fri 07:49:37 AM 55.9816 4.3532 263° West 472 543 34,000  Level FlightAware UK
Fri 07:50:25 AM 55.9692 4.1821 263° West 468 539 34,000  Level FlightAware UK
Fri 07:50:55 AM 55.9615 4.0753 263° West 470 541 34,000  Level FlightAware UK
Fri 07:51:43 AM 55.9482 3.9051 262° West 470 541 34,000  Level FlightAware UK
Fri 07:52:13 AM 55.9395 3.7984 262° West 476 548 34,000  Level FlightAware UK
Fri 07:54:13 AM 55.9131 3.3743 264° West 470 541 34,000  Level FlightAware UK
Fri 07:54:49 AM 55.9099 3.2476 268° West 470 541 34,000  Level FlightAware UK
Fri 07:55:19 AM 55.9072 3.1417 267° West 470 541 34,000  Level FlightAware UK
Fri 07:55:55 AM 55.9041 3.0149 268° West 472 543 34,000  Level FlightAware UK
Fri 07:56:25 AM 55.9014 2.9090 267° West 474 545 34,000  Level FlightAware UK
Fri 07:56:55 AM 55.8985 2.8032 267° West 472 543 34,000  Level FlightAware UK
Fri 07:57:37 AM 55.8942 2.6558 267° West 470 541 34,000  Level FlightAware UK
Fri 07:58:13 AM 55.8903 2.5296 267° West 470 541 34,000  Level FlightAware UK
Fri 07:58:43 AM 55.8870 2.4222 267° West 470 541 34,000  Level FlightAware UK
Fri 07:59:25 AM 55.8876 2.2764 270° West 468 539 34,000  Level FlightAware UK
Fri 07:59:55 AM 55.8901 2.1718 273° West 470 541 34,000  Level FlightAware UK
Fri 08:00:04 AM 55.8913 2.1428 272° West 428 493 34,000  Level FlightAware ADS-B
Fri 08:00:25 AM 55.8923 2.0665 272° West 472 543 34,000  Level FlightAware UK
Fri 08:00:45 AM 55.8865 2.3812 92° East 427 491 34,000  Level FlightAware ADS-B (EGNT / NCL)
Fri 08:01:31 AM 55.8969 1.8357 92° East 478 550 34,000  Level FlightAware UK
Fri 08:02:12 AM 55.8999 1.6959 92° East 424 488 34,000  Level FlightAware ADS-B
Fri 08:02:48 AM 55.9018 1.5644 92° East 468 539 34,000  Level FlightAware UK
Fri 08:02:58 AM 55.9027 1.5389 92° East 425 489 34,000  Level FlightAware ADS-B (EGNT / NCL)
Fri 08:03:34 AM 55.9049 1.4074 272° West 428 493 34,000  Level FlightAware ADS-B
Fri 08:04:17 AM 55.9071 1.2596 272° West 429 494 34,000  Level FlightAware ADS-B
Fri 08:05:02 AM 55.9092 1.0980 271° West 429 494 34,000  Level FlightAware ADS-B
Fri 08:05:12 AM 55.9090 1.1192 91° East 428 493 34,000  Level FlightAware ADS-B (EGNT / NCL)
Fri 08:05:46 AM 55.9112 0.9428 271° West 427 491 34,000  Level FlightAware ADS-B
Fri 08:06:17 AM 55.9124 0.8353 271° West 427 491 34,000  Level FlightAware ADS-B (EGNT / NCL)
Fri 08:06:23 AM 55.9126 0.8150 271° West 427 491 34,000  Level FlightAware ADS-B (EGNT / NCL)
Fri 08:07:10 AM 55.9142 0.6520 271° West 427 491 34,000  Level FlightAware ADS-B (EGNT / NCL)
Fri 08:07:17 AM 55.9145 0.6251 271° West 427 491 34,000  Level FlightAware ADS-B
Fri 08:07:48 AM 55.9154 0.5151 271° West 427 491 34,000  Level FlightAware ADS-B
Fri 08:08:08 AM 55.9160 0.4455 271° West 426 490 34,000  Level FlightAware ADS-B (EGNT / NCL)
Fri 08:08:39 AM 55.9168 0.3386 271° West 422 486 34,000  Level FlightAware ADS-B (EGNT / NCL)
Fri 08:09:10 AM 55.9174 0.2335 271° West 422 486 34,000  Level FlightAware ADS-B (EGNT / NCL)
Fri 08:09:42 AM 55.9179 0.1492 271° West 421 484 34,000  Level FlightAware ADS-B
Fri 08:10:12 AM 55.9185 0.0238 271° West 421 484 34,000  Level FlightAware ADS-B
Fri 08:10:45 AM 55.9189 -0.0976 270° West 420 483 34,000  Level FlightAware ADS-B
Fri 08:11:19 AM 55.9192 -0.2027 270° West 419 482 34,000  Level FlightAware ADS-B (EGNT / NCL)
Fri 08:11:51 AM 55.9194 -0.3234 270° West 420 483 34,000  Level FlightAware ADS-B
Fri 08:12:23 AM 55.9195 -0.4267 270° West 422 486 34,000  Level FlightAware ADS-B
Fri 08:12:53 AM 55.9197 -0.5407 270° West 422 486 34,000  Level FlightAware ADS-B
Fri 08:13:23 AM 55.9195 -0.6406 270° West 422 486 34,000  Level FlightAware ADS-B
Fri 08:13:59 AM 55.9193 -0.7680 270° West 423 487 34,000  Level FlightAware ADS-B
Fri 08:14:30 AM 55.9190 -0.8582 270° West 421 484 34,000  Level FlightAware ADS-B (EGNT / NCL)
Fri 08:15:08 AM 55.9185 -1.0055 270° West 423 487 34,000  Level FlightAware ADS-B
Fri 08:15:43 AM 55.9179 -1.1189 270° West 420 483 34,000  Level FlightAware ADS-B
Fri 08:16:14 AM 55.9173 -1.2306 269° West 424 488 34,000  Level FlightAware ADS-B
Fri 08:16:54 AM 55.9166 -1.3497 269° West 426 490 34,000  Level FlightAware ADS-B
Fri 08:17:24 AM 55.9156 -1.4757 269° West 426 490 34,000  Level FlightAware ADS-B
Fri 08:17:41 AM 55.9152 -1.5259 269° West 427 491 34,000  Level FlightAware ADS-B
Fri 08:17:52 AM 55.9149 -1.5647 269° West 427 491 34,000  Level FlightAware ADS-B
Fri 08:18:02 AM 55.9145 -1.6015 269° West 427 491 34,000  Level FlightAware ADS-B
Fri 08:18:13 AM 55.9141 -1.6396 269° West 427 491 34,000  Level FlightAware ADS-B
Fri 08:18:44 AM 55.9132 -1.7374 269° West 426 490 34,000  Level FlightAware ADS-B
Fri 08:18:53 AM 55.9126 -1.7905 269° West 427 491 34,000  Level FlightAware ADS-B
Fri 08:19:23 AM 55.9115 -1.8945 269° West 427 491 34,000  Level FlightAware ADS-B
Fri 08:19:26 AM 55.9115 -1.8968 270° West 428 493 34,000  Level FlightAware ADS-B
Fri 08:20:02 AM 55.9102 -2.0121 269° West 427 491 34,000  Level FlightAware ADS-B
Fri 08:20:12 AM 55.9097 -2.0556 269° West 427 491 34,000  Level FlightAware ADS-B
Fri 08:20:33 AM 55.9086 -2.1335 269° West 431 496 34,000  Level FlightAware ADS-B (EGNT / NCL)
Fri 08:20:53 AM 55.9064 -2.1782 265° West 452 520 34,000  Level FlightAware ADS-B
Fri 08:21:10 AM 55.8896 -2.2754 253° West 473 544 34,000  Level FlightAware ADS-B
Fri 08:21:32 AM 55.8708 -2.3339 240° Southwest 473 544 34,000  Level FlightAware ADS-B
Fri 08:21:44 AM 55.8553 -2.3798 239° Southwest 481 554 34,000  Level FlightAware ADS-B
Fri 08:21:53 AM 55.8462 -2.4068 239° Southwest 481 554 34,000  Level FlightAware ADS-B
Fri 08:22:05 AM 55.8325 -2.4474 239° Southwest 480 552 34,000  Level FlightAware ADS-B
Fri 08:22:13 AM 55.8218 -2.4794 239° Southwest 479 551 34,000  Level FlightAware ADS-B
Fri 08:22:43 AM 55.7872 -2.5816 239° Southwest 485 558 34,000  Level FlightAware ADS-B
Fri 08:22:49 AM 55.7828 -2.5947 239° Southwest 481 554 34,000  Level FlightAware ADS-B
Fri 08:23:25 AM 55.7561 -2.6733 239° Southwest 489 563 34,000  Level FlightAware ADS-B
Fri 08:23:58 AM 55.6962 -2.8490 239° Southwest 485 558 34,000  Level FlightAware ADS-B
Fri 08:24:04 AM 55.6897 -2.8679 239° Southwest 485 558 34,000  Level FlightAware ADS-B
Fri 08:24:38 AM 55.6655 -2.9384 239° Southwest 489 563 34,000  Level FlightAware ADS-B
Fri 08:25:22 AM 55.6400 -3.0125 239° Southwest 490 564 34,000  Level FlightAware ADS-B
Fri 08:26:05 AM 55.5499 -3.2726 239° Southwest 489 563 34,000  Level FlightAware ADS-B (EGNT / NCL)
Fri 08:26:49 AM 55.5003 -3.4142 238° Southwest 486 559 34,000  Level FlightAware ADS-B
Fri 08:27:21 AM 55.4565 -3.5389 238° Southwest 460 529 34,000  Level FlightAware UK
Fri 08:27:39 AM 55.4411 -3.5827 238° Southwest 486 559 34,000  Level FlightAware ADS-B
Fri 08:28:16 AM 55.3972 -3.7071 238° Southwest 486 559 34,000  Level FlightAware ADS-B
Fri 08:28:49 AM 55.3571 -3.8198 238° Southwest 488 562 34,000  Level FlightAware ADS-B
Fri 08:29:23 AM 55.3127 -3.9443 238° Southwest 493 567 34,000  Level FlightAware ADS-B
Fri 08:29:54 AM 55.2786 -4.0394 238° Southwest 491 565 34,000  Level FlightAware ADS-B
Fri 08:30:26 AM 55.2405 -4.1453 238° Southwest 496 571 34,000  Level FlightAware ADS-B
Fri 08:31:06 AM 55.1903 -4.2841 238° Southwest 499 574 34,000  Level FlightAware ADS-B
Fri 08:31:38 AM 55.1512 -4.3916 238° Southwest 504 580 34,000  Level FlightAware ADS-B
Fri 08:32:10 AM 55.1105 -4.5028 237° Southwest 507 583 34,000  Level FlightAware ADS-B
Fri 08:32:44 AM 55.0636 -4.6304 237° Southwest 510 587 34,000  Level FlightAware ADS-B
Fri 08:33:25 AM 55.0158 -4.7599 237° Southwest 511 588 34,000  Level FlightAware ADS-B
Fri 08:33:55 AM 54.9787 -4.8595 237° Southwest 510 587 34,000  Level FlightAware ADS-B
Fri 08:34:27 AM 54.9305 -4.9894 237° Southwest 466 536 34,000  Level FlightAware UK
Fri 08:34:38 AM 54.9219 -5.0122 237° Southwest 507 583 34,000  Level FlightAware ADS-B
Fri 08:35:17 AM 54.8722 -5.1448 237° Southwest 512 589 34,000  Level FlightAware ADS-B
Fri 08:35:49 AM 54.8309 -5.2549 237° Southwest 511 588 34,000  Level FlightAware ADS-B
Fri 08:36:29 AM 54.7792 -5.3925 237° Southwest 509 586 34,000  Level FlightAware ADS-B
Fri 08:37:05 AM 54.7312 -5.5191 237° Southwest 511 588 34,000  Level FlightAware ADS-B
Fri 08:37:36 AM 54.6933 -5.6189 237° Southwest 511 588 34,000  Level FlightAware ADS-B
Fri 08:38:08 AM 54.6505 -5.7307 237° Southwest 512 589 34,000  Level FlightAware ADS-B
Fri 08:38:39 AM 54.6193 -5.8121 237° Southwest 520 598 34,000  Level FlightAware ADS-B
Fri 08:39:09 AM 54.5692 -5.9422 236° Southwest 522 601 34,000  Level FlightAware ADS-B
Fri 08:39:39 AM 54.5236 -6.0592 236° Southwest 468 539 34,000  Level FlightAware UK
Fri 08:39:44 AM 54.5175 -6.0756 236° Southwest 523 602 34,000  Level FlightAware ADS-B
Fri 08:40:17 AM 54.4729 -6.1900 236° Southwest 521 600 34,000  Level FlightAware ADS-B
Fri 08:40:54 AM 54.4240 -6.3149 236° Southwest 522 601 34,000  Level FlightAware ADS-B
Fri 08:41:32 AM 54.3773 -6.4336 236° Southwest 521 600 34,000  Level FlightAware ADS-B
Fri 08:42:06 AM 54.3264 -6.5626 236° Southwest 518 596 34,000  Level FlightAware ADS-B
Fri 08:42:43 AM 54.2786 -6.6827 236° Southwest 519 597 34,000  Level FlightAware ADS-B
Fri 08:43:13 AM 54.2276 -6.7783 228° Southwest 545 627 34,000  Level FlightAware ADS-B
Fri 08:43:49 AM 54.1513 -6.8668 214° Southwest 556 640 34,000  Level FlightAware ADS-B
Fri 08:44:28 AM 54.0665 -6.9607 213° Southwest 555 639 34,000  Level FlightAware ADS-B
Fri 08:45:00 AM 54.0057 -7.0279 213° Southwest 554 638 34,000  Level FlightAware ADS-B
Fri 08:45:52 AM 53.8876 -7.1576 213° Southwest 555 639 34,000  Level FlightAware ADS-B
Fri 08:46:22 AM 53.8232 -7.2280 213° Southwest 557 641 34,000  Level FlightAware ADS-B
Fri 08:47:02 AM 53.7374 -7.3214 213° Southwest 558 642 34,000  Level FlightAware ADS-B
Fri 08:47:32 AM 53.6736 -7.3906 213° Southwest 559 643 34,000  Level FlightAware ADS-B
Fri 08:48:02 AM 53.6044 -7.4655 213° Southwest 468 539 34,000  Level FlightAware UK
Fri 08:48:10 AM 53.5909 -7.4799 213° Southwest 558 642 34,000  Level FlightAware ADS-B
Fri 08:49:08 AM 53.4610 -7.6195 213° Southwest 470 541 34,000  Level FlightAware UK
Fri 08:49:24 AM 53.4363 -7.6455 213° Southwest 561 646 34,000  Level FlightAware ADS-B (EPBY / BZG)
Fri 08:49:54 AM 53.3847 -7.7006 212° Southwest 561 646 34,000  Level FlightAware ADS-B (EPBY / BZG)
Fri 08:50:33 AM 53.2780 -7.8137 212° Southwest 560 644 34,000  Level FlightAware ADS-B
Fri 08:51:08 AM 53.1990 -7.8975 212° Southwest 470 541 34,000  Level FlightAware UK
Fri 08:51:23 AM 53.1751 -7.9223 212° Southwest 560 644 34,000  Level FlightAware ADS-B (EPBY / BZG)
Fri 08:51:54 AM 53.1159 -7.9844 212° Southwest 560 644 34,000  Level FlightAware ADS-B (EPBY / BZG)
Fri 08:52:33 AM 53.0208 -8.0838 212° Southwest 559 643 34,000  Level FlightAware ADS-B (EPBY / BZG)
Fri 08:53:04 AM 52.9557 -8.1516 212° Southwest 559 643 34,000  Level FlightAware ADS-B (EPBY / BZG)
Fri 08:53:34 AM 52.8900 -8.2197 212° Southwest 558 642 34,000  Level FlightAware ADS-B (EPBY / BZG)
Fri 08:54:07 AM 52.9016 -8.2077 32° Northeast 558 642 34,000  Level FlightAware ADS-B
Fri 08:54:38 AM 52.7404 -8.3741 32° Northeast 470 541 34,000  Level FlightAware UK
Fri 08:54:45 AM 52.7554 -8.3585 32° Northeast 556 640 34,000  Level FlightAware ADS-B (EPBY / BZG)
Fri 08:55:26 AM 52.6705 -8.4456 212° Southwest 556 640 34,000  Level FlightAware ADS-B (EPBY / BZG)
Fri 08:55:56 AM 52.5848 -8.5330 212° Southwest 558 642 34,000  Level FlightAware ADS-B (EPBY / BZG)
Fri 08:56:26 AM 52.5423 -8.5762 212° Southwest 559 643 34,000  Level FlightAware ADS-B (EPBY / BZG)
Fri 08:57:14 AM 52.3997 -8.7205 212° Southwest 472 543 34,000  Level FlightAware UK
Fri 08:57:44 AM 52.3337 -8.7870 212° Southwest 474 545 34,000  Level FlightAware UK
Fri 08:57:49 AM 52.3990 -8.7211 212° Southwest 553 636 34,000  Level FlightAware ADS-B
Fri 08:58:25 AM 52.2714 -8.8493 212° Southwest 558 642 34,000  Level FlightAware ADS-B (EPBY / BZG)
Fri 08:58:56 AM 52.1821 -8.9384 211° Southwest 555 639 34,000  Level FlightAware ADS-B (EPBY / BZG)
Fri 08:59:26 AM 52.1161 -9.0040 211° Southwest 553 636 34,000 375 Level FlightAware ADS-B (EPBY / BZG)
Fri 09:00:16 AM 52.0111 -9.1080 211° Southwest 552 635 34,500 400 Climbing FlightAware ADS-B (EPBY / BZG)
Fri 09:01:56 AM 51.7957 -9.3195 211° Southwest 552 635 35,000 231 Climbing FlightAware ADS-B (EPBY / BZG)
Fri 09:02:26 AM 51.7321 -9.3814 211° Southwest 551 634 35,000  Level FlightAware ADS-B (EPBY / BZG)
Fri 09:03:06 AM 51.6363 -9.4742 211° Southwest 550 633 35,000  Level FlightAware ADS-B (EPBY / BZG)
Fri 09:03:36 AM 51.5750 -9.5334 211° Southwest 549 632 35,000  Level FlightAware ADS-B (EPBY / BZG)
Fri 09:04:07 AM 51.5145 -9.5917 211° Southwest 550 633 35,000  Level FlightAware ADS-B (EPBY / BZG)
Fri 09:06:00 AM 51.3334 -9.8241 219° Southwest  Level FlightAware Approximate
Fri 09:06:16 AM 51.2250 -9.8680 219° Southwest 552 635 35,000  Level FlightAware ADS-B (EPBY / BZG)
Fri 09:08:00 AM 51.0551 -10.0738 217° Southwest  Level FlightAware Approximate
Fri 09:09:00 AM 50.9478 -10.1778 210° Southwest  Level FlightAware Approximate
Fri 09:10:00 AM 50.8409 -10.2746 210° Southwest  Level FlightAware Approximate
Fri 09:11:00 AM 50.7338 -10.3709 210° Southwest  Level FlightAware Approximate
Fri 09:12:00 AM 50.6268 -10.4668 210° Southwest  Level FlightAware Approximate
Fri 09:13:00 AM 50.5196 -10.5622 209° Southwest  Level FlightAware Approximate
Fri 09:14:00 AM 50.4122 -10.6569 209° Southwest  Level FlightAware Approximate
Fri 09:15:00 AM 50.3048 -10.7512 209° Southwest  Level FlightAware Approximate
Fri 09:16:00 AM 50.1973 -10.8450 209° Southwest  Level FlightAware Approximate
Fri 09:17:00 AM 50.0897 -10.9385 209° Southwest  Level FlightAware Approximate
Fri 09:18:00 AM 49.9820 -11.0315 209° Southwest  Level FlightAware Approximate
Fri 09:19:00 AM 49.8743 -11.1241 209° Southwest  Level FlightAware Approximate
Fri 09:20:00 AM 49.7665 -11.2163 209° Southwest  Level FlightAware Approximate
Fri 09:21:00 AM 49.6586 -11.3081 209° Southwest  Level FlightAware Approximate
Fri 09:22:00 AM 49.5507 -11.3995 209° Southwest  Level FlightAware Approximate
Fri 09:23:00 AM 49.4428 -11.4910 209° Southwest  Level FlightAware Approximate
Fri 09:24:00 AM 49.3349 -11.5822 209° Southwest  Level FlightAware Approximate
Fri 09:25:00 AM 49.2270 -11.6729 209° Southwest  Level FlightAware Approximate
Fri 09:26:00 AM 49.1190 -11.7633 209° Southwest  Level FlightAware Approximate
Fri 09:27:00 AM 49.0109 -11.8532 209° Southwest  Level FlightAware Approximate
Fri 09:28:00 AM 48.9027 -11.9428 209° Southwest  Level FlightAware Approximate
Fri 09:29:00 AM 48.8171 -12.0625 248° West  Level FlightAware Approximate
Fri 09:30:00 AM 48.7715 -12.2361 248° West  Level FlightAware Approximate
Fri 09:31:00 AM 48.7257 -12.4095 248° West  Level FlightAware Approximate
Fri 09:32:00 AM 48.6797 -12.5825 248° West  Level FlightAware Approximate
Fri 09:33:00 AM 48.6334 -12.7552 248° West  Level FlightAware Approximate
Fri 09:34:00 AM 48.5869 -12.9276 248° West  Level FlightAware Approximate
Fri 09:35:00 AM 48.5401 -13.0997 248° West  Level FlightAware Approximate
Fri 09:36:00 AM 48.4930 -13.2715 248° West  Level FlightAware Approximate
Fri 09:37:00 AM 48.4457 -13.4429 247° West  Level FlightAware Approximate
Fri 09:38:00 AM 48.3981 -13.6140 247° West  Level FlightAware Approximate
Fri 09:39:00 AM 48.3503 -13.7848 247° West  Level FlightAware Approximate
Fri 09:40:00 AM 48.3022 -13.9553 247° West  Level FlightAware Approximate
Fri 09:41:00 AM 48.2538 -14.1255 247° West  Level FlightAware Approximate
Fri 09:42:00 AM 48.2053 -14.2953 247° West  Level FlightAware Approximate
Fri 09:43:00 AM 48.1564 -14.4648 247° West  Level FlightAware Approximate
Fri 09:44:00 AM 48.1074 -14.6340 247° West  Level FlightAware Approximate
Fri 09:45:00 AM 48.0580 -14.8029 246° West  Level FlightAware Approximate
Fri 09:46:00 AM 48.0084 -14.9714 246° West  Level FlightAware Approximate
Fri 09:47:00 AM 47.9741 -15.1477 255° West  Level FlightAware Approximate
Fri 09:48:00 AM 47.9426 -15.3255 255° West  Level FlightAware Approximate
Fri 09:49:00 AM 47.9109 -15.5030 255° West  Level FlightAware Approximate
Fri 09:50:00 AM 47.8788 -15.6803 255° West  Level FlightAware Approximate
Fri 09:51:00 AM 47.8465 -15.8574 255° West  Level FlightAware Approximate
Fri 09:52:00 AM 47.8139 -16.0343 255° West  Level FlightAware Approximate
Fri 09:53:00 AM 47.7811 -16.2110 255° West  Level FlightAware Approximate
Fri 09:54:00 AM 47.7480 -16.3874 254° West  Level FlightAware Approximate
Fri 09:55:00 AM 47.7146 -16.5636 254° West  Level FlightAware Approximate
Fri 09:56:00 AM 47.6810 -16.7396 254° West  Level FlightAware Approximate
Fri 09:57:00 AM 47.6470 -16.9153 254° West  Level FlightAware Approximate
Fri 09:58:00 AM 47.6129 -17.0908 254° West  Level FlightAware Approximate
Fri 09:59:00 AM 47.5784 -17.2661 254° West  Level FlightAware Approximate
Fri 10:00:00 AM 47.5437 -17.4412 254° West  Level FlightAware Approximate
Fri 10:01:00 AM 47.5087 -17.6160 254° West  Level FlightAware Approximate
Fri 10:02:00 AM 47.4734 -17.7906 253° West  Level FlightAware Approximate
Fri 10:02:00 AM 47.0000 -20.0000 258° West 520 598 36,000  Level ETMS Enhanced Traffic Management System
Fri 10:03:00 AM 47.4379 -17.9650 253° West  Level FlightAware Approximate
Fri 10:04:00 AM 47.4021 -18.1391 253° West  Level FlightAware Approximate
Fri 10:05:00 AM 47.3661 -18.3130 253° West  Level FlightAware Approximate
Fri 10:06:00 AM 47.3298 -18.4866 253° West  Level FlightAware Approximate
Fri 10:07:00 AM 47.2932 -18.6600 253° West  Level FlightAware Approximate
Fri 10:08:00 AM 46.8069 -21.2367 257° West 520 598 36,000  Level FlightAware Transoceanic
Fri 10:09:00 AM 46.7734 -21.4420 257° West 520 598 36,000  Level FlightAware Transoceanic
Fri 10:10:00 AM 46.7396 -21.6470 256° West 520 598 36,000  Level FlightAware Transoceanic
Fri 10:11:00 AM 46.7054 -21.8517 256° West 520 598 36,000  Level FlightAware Transoceanic
Fri 10:12:00 AM 46.6708 -22.0562 256° West 520 598 36,000  Level FlightAware Transoceanic
Fri 10:13:00 AM 46.6359 -22.2604 256° West 520 598 36,000  Level FlightAware Transoceanic
Fri 10:14:00 AM 46.6006 -22.4643 256° West 520 598 36,000  Level FlightAware Transoceanic
Fri 10:15:00 AM 46.5649 -22.6680 256° West 520 598 36,000  Level FlightAware Transoceanic
Fri 10:16:00 AM 46.5289 -22.8714 255° West 520 598 36,000  Level FlightAware Transoceanic
Fri 10:17:00 AM 46.4925 -23.0746 255° West 520 598 36,000  Level FlightAware Transoceanic
Fri 10:18:00 AM 46.4558 -23.2774 255° West 520 598 36,000  Level FlightAware Transoceanic
Fri 10:19:00 AM 46.4187 -23.4800 255° West 520 598 36,000  Level FlightAware Transoceanic
Fri 10:20:00 AM 46.3812 -23.6823 255° West 520 598 36,000  Level FlightAware Transoceanic
Fri 10:21:00 AM 46.3434 -23.8844 255° West 520 598 36,000  Level FlightAware Transoceanic
Fri 10:22:00 AM 46.3052 -24.0861 255° West 520 598 36,000  Level FlightAware Transoceanic
Fri 10:23:00 AM 46.2667 -24.2876 254° West 520 598 36,000  Level FlightAware Transoceanic
Fri 10:24:00 AM 46.2279 -24.4888 254° West 520 598 36,000  Level FlightAware Transoceanic
Fri 10:25:00 AM 46.1886 -24.6897 254° West 520 598 36,000  Level FlightAware Transoceanic
Fri 10:26:00 AM 46.1490 -24.8903 254° West 520 598 36,000  Level FlightAware Transoceanic
Fri 10:27:00 AM 46.1091 -25.0906 254° West 520 598 36,000  Level FlightAware Transoceanic
Fri 10:28:00 AM 46.0688 -25.2906 254° West 520 598 36,000  Level FlightAware Transoceanic
Fri 10:29:00 AM 46.0282 -25.4904 254° West 520 598 36,000  Level FlightAware Transoceanic
Fri 10:30:00 AM 45.9872 -25.6898 253° West 520 598 36,000  Level FlightAware Transoceanic
Fri 10:31:00 AM 45.9459 -25.8890 253° West 520 598 36,000  Level FlightAware Transoceanic
Fri 10:32:00 AM 45.9043 -26.0878 253° West 520 598 36,000  Level FlightAware Transoceanic
Fri 10:33:00 AM 45.8622 -26.2864 253° West 520 598 36,000  Level FlightAware Transoceanic
Fri 10:34:00 AM 45.8199 -26.4846 253° West 520 598 36,000  Level FlightAware Transoceanic
Fri 10:35:00 AM 45.7772 -26.6826 253° West 520 598 36,000  Level FlightAware Transoceanic
Fri 10:36:00 AM 45.7341 -26.8802 253° West 520 598 36,000  Level FlightAware Transoceanic
Fri 10:37:00 AM 45.6908 -27.0776 252° West 520 598 36,000  Level FlightAware Transoceanic
Fri 10:38:00 AM 45.6471 -27.2746 252° West 520 598 36,000  Level FlightAware Transoceanic
Fri 10:39:00 AM 45.6030 -27.4713 252° West 520 598 36,000  Level FlightAware Transoceanic
Fri 10:40:00 AM 45.5586 -27.6677 252° West 520 598 36,000  Level FlightAware Transoceanic
Fri 10:41:00 AM 45.5139 -27.8638 252° West 520 598 36,000  Level FlightAware Transoceanic
Fri 10:42:00 AM 45.4688 -28.0596 252° West 520 598 36,000  Level FlightAware Transoceanic
Fri 10:43:00 AM 45.4234 -28.2551 252° West 520 598 36,000  Level FlightAware Transoceanic
Fri 10:44:00 AM 45.3777 -28.4502 251° West 520 598 36,000  Level FlightAware Transoceanic
Fri 10:45:00 AM 45.3316 -28.6451 251° West 520 598 36,000  Level FlightAware Transoceanic
Fri 10:46:00 AM 45.2852 -28.8396 251° West 520 598 36,000  Level FlightAware Transoceanic
Fri 10:47:00 AM 45.2385 -29.0338 251° West 520 598 36,000  Level FlightAware Transoceanic
Fri 10:48:00 AM 45.1915 -29.2277 251° West 520 598 36,000  Level FlightAware Transoceanic
Fri 10:49:00 AM 45.1441 -29.4212 251° West 520 598 36,000  Level FlightAware Transoceanic
Fri 10:50:00 AM 45.0964 -29.6145 251° West 520 598 36,000  Level FlightAware Transoceanic
Fri 10:51:00 AM 45.0484 -29.8074 251° West 520 598 36,000  Level FlightAware Transoceanic
Fri 10:52:00 AM 45.0072 -29.9716 251° West  Level FlightAware Approximate
Fri 10:53:00 AM 44.9657 -30.1355 250° West  Level FlightAware Approximate
Fri 10:54:00 AM 44.9736 -30.1075 251° West  Level FlightAware Approximate
Fri 10:55:00 AM 44.9329 -30.2717 251° West  Level FlightAware Approximate
Fri 10:56:00 AM 44.8921 -30.4357 251° West  Level FlightAware Approximate
Fri 10:57:00 AM 44.8510 -30.5995 251° West  Level FlightAware Approximate
Fri 10:58:00 AM 44.8097 -30.7630 250° West  Level FlightAware Approximate
Fri 10:59:00 AM 44.7681 -30.9263 250° West  Level FlightAware Approximate
Fri 11:00:00 AM 44.7263 -31.0894 250° West  Level FlightAware Approximate
Fri 11:01:00 AM 44.6843 -31.2522 250° West  Level FlightAware Approximate
Fri 11:02:00 AM 44.6420 -31.4148 250° West  Level FlightAware Approximate
Fri 11:03:00 AM 44.5995 -31.5772 250° West  Level FlightAware Approximate
Fri 11:04:00 AM 44.5568 -31.7393 250° West  Level FlightAware Approximate
Fri 11:05:00 AM 44.5139 -31.9012 250° West  Level FlightAware Approximate
Fri 11:06:00 AM 44.4707 -32.0628 250° West  Level FlightAware Approximate
Fri 11:07:00 AM 44.4273 -32.2242 249° West  Level FlightAware Approximate
Fri 11:08:00 AM 44.3836 -32.3854 249° West  Level FlightAware Approximate
Fri 11:09:00 AM 44.3398 -32.5463 249° West  Level FlightAware Approximate
Fri 11:10:00 AM 44.2957 -32.7070 249° West  Level FlightAware Approximate
Fri 11:11:00 AM 44.2514 -32.8674 249° West  Level FlightAware Approximate
Fri 11:12:00 AM 44.2069 -33.0276 249° West  Level FlightAware Approximate
Fri 11:13:00 AM 44.1621 -33.1876 249° West  Level FlightAware Approximate
Fri 11:14:00 AM 44.1171 -33.3473 249° West  Level FlightAware Approximate
Fri 11:15:00 AM 44.0720 -33.5069 249° West  Level FlightAware Approximate
Fri 11:16:00 AM 44.0271 -33.6663 249° West  Level FlightAware Approximate
Fri 11:17:00 AM 43.9818 -33.8255 249° West  Level FlightAware Approximate
Fri 11:18:00 AM 43.9364 -33.9845 248° West  Level FlightAware Approximate
Fri 11:19:00 AM 43.8908 -34.1432 248° West  Level FlightAware Approximate
Fri 11:20:00 AM 43.8449 -34.3017 248° West  Level FlightAware Approximate
Fri 11:21:00 AM 43.7988 -34.4600 248° West  Level FlightAware Approximate
Fri 11:22:00 AM 43.7525 -34.6180 248° West  Level FlightAware Approximate
Fri 11:23:00 AM 43.7060 -34.7757 248° West  Level FlightAware Approximate
Fri 11:24:00 AM 43.6592 -34.9333 248° West  Level FlightAware Approximate
Fri 11:25:00 AM 43.6123 -35.0905 248° West  Level FlightAware Approximate
Fri 11:26:00 AM 43.5651 -35.2476 248° West  Level FlightAware Approximate
Fri 11:27:00 AM 43.5177 -35.4043 247° West  Level FlightAware Approximate
Fri 11:28:00 AM 43.4701 -35.5609 247° West  Level FlightAware Approximate
Fri 11:29:00 AM 43.4223 -35.7171 247° West  Level FlightAware Approximate
Fri 11:30:00 AM 43.3743 -35.8732 247° West  Level FlightAware Approximate
Fri 11:31:00 AM 43.3260 -36.0290 247° West  Level FlightAware Approximate
Fri 11:32:00 AM 43.2776 -36.1845 247° West  Level FlightAware Approximate
Fri 11:33:00 AM 43.2289 -36.3398 247° West  Level FlightAware Approximate
Fri 11:34:00 AM 43.1801 -36.4948 247° West  Level FlightAware Approximate
Fri 11:35:00 AM 43.1310 -36.6496 247° West  Level FlightAware Approximate
Fri 11:36:00 AM 43.0817 -36.8042 246° West  Level FlightAware Approximate
Fri 11:37:00 AM 43.0322 -36.9585 246° West  Level FlightAware Approximate
Fri 11:38:00 AM 42.9825 -37.1125 246° West  Level FlightAware Approximate
Fri 11:39:00 AM 42.9326 -37.2663 246° West  Level FlightAware Approximate
Fri 11:40:00 AM 42.8825 -37.4199 246° West  Level FlightAware Approximate
Fri 11:41:00 AM 42.8322 -37.5732 246° West  Level FlightAware Approximate
Fri 11:42:00 AM 42.7817 -37.7262 246° West  Level FlightAware Approximate
Fri 11:43:00 AM 42.7309 -37.8790 246° West  Level FlightAware Approximate
Fri 11:44:00 AM 42.6800 -38.0316 246° West  Level FlightAware Approximate
Fri 11:45:00 AM 42.6289 -38.1839 246° West  Level FlightAware Approximate
Fri 11:46:00 AM 42.5775 -38.3359 245° Southwest  Level FlightAware Approximate
Fri 11:47:00 AM 42.5260 -38.4877 245° Southwest  Level FlightAware Approximate
Fri 11:48:00 AM 42.4743 -38.6393 245° Southwest  Level FlightAware Approximate
Fri 11:49:00 AM 42.4224 -38.7906 245° Southwest  Level FlightAware Approximate
Fri 11:49:19 AM 42.1167 -39.6833 244° Southwest 465 535 36,000  Level New York Oceanic (ODAPS)
Fri 11:50:00 AM 42.3702 -38.9416 245° Southwest  Level FlightAware Approximate
Fri 11:51:00 AM 42.3181 -39.0925 245° Southwest  Level FlightAware Approximate
Fri 11:51:26 AM 42.0000 -40.0000 252° West 453 521 36,000  Level New York Oceanic (ODAPS)
Fri 11:52:00 AM 42.2660 -39.2433 245° Southwest  Level FlightAware Approximate
Fri 11:53:00 AM 42.2136 -39.3939 245° Southwest  Level FlightAware Approximate
Fri 11:54:00 AM 42.1611 -39.5442 245° Southwest  Level FlightAware Approximate
Fri 11:55:00 AM 41.8434 -40.6312 251° West 465 535 36,000  Level FlightAware Transoceanic
Fri 11:56:00 AM 41.8038 -40.7885 251° West 465 535 36,000  Level FlightAware Transoceanic
Fri 11:57:00 AM 41.7602 -40.9601 251° West 453 521 36,000  Level FlightAware Transoceanic
Fri 11:57:28 AM 41.7333 -41.0833 251° West 451 519 36,000  Level New York Oceanic (ODAPS)
Fri 11:58:00 AM 41.7194 -41.1194 251° West 453 521 36,000  Level FlightAware Transoceanic
Fri 11:59:00 AM 41.6785 -41.2785 251° West 453 521 36,000  Level FlightAware Transoceanic
Fri 12:00:00 PM 41.6373 -41.4374 251° West 453 521 36,000  Level FlightAware Transoceanic
Fri 12:01:00 PM 41.5959 -41.5961 251° West 453 521 36,000  Level FlightAware Transoceanic
Fri 12:02:00 PM 41.5543 -41.7546 251° West 453 521 36,000  Level FlightAware Transoceanic
Fri 12:03:00 PM 41.4874 -42.0228 250° West 451 519 36,000  Level FlightAware Transoceanic
Fri 12:04:00 PM 41.4457 -42.1787 250° West 451 519 36,000  Level FlightAware Transoceanic
Fri 12:05:00 PM 41.4037 -42.3344 250° West 451 519 36,000  Level FlightAware Transoceanic
Fri 12:06:00 PM 41.3616 -42.4899 250° West 451 519 36,000  Level FlightAware Transoceanic
Fri 12:07:00 PM 41.3192 -42.6452 250° West 451 519 36,000  Level FlightAware Transoceanic
Fri 12:08:00 PM 41.2767 -42.8003 250° West 451 519 36,000  Level FlightAware Transoceanic
Fri 12:09:00 PM 41.2339 -42.9551 250° West 451 519 36,000  Level FlightAware Transoceanic
Fri 12:10:00 PM 41.1909 -43.1098 250° West 451 519 36,000  Level FlightAware Transoceanic
Fri 12:11:00 PM 41.1477 -43.2643 250° West 451 519 36,000  Level FlightAware Transoceanic
Fri 12:11:19 PM 41.1000 -43.4167 250° West 441 507 36,000  Level New York Oceanic (ODAPS)
Fri 12:12:00 PM 41.1043 -43.4185 249° West 451 519 36,000  Level FlightAware Transoceanic
Fri 12:13:00 PM 41.0607 -43.5726 249° West 451 519 36,000  Level FlightAware Transoceanic
Fri 12:14:00 PM 41.0169 -43.7265 249° West 451 519 36,000  Level FlightAware Transoceanic
Fri 12:15:00 PM 40.9729 -43.8801 249° West 451 519 36,000  Level FlightAware Transoceanic
Fri 12:16:00 PM 40.9287 -44.0336 249° West 451 519 36,000  Level FlightAware Transoceanic
Fri 12:17:00 PM 40.8419 -44.3178 249° West 441 507 36,000  Level FlightAware Transoceanic
Fri 12:18:00 PM 40.7982 -44.4673 249° West 441 507 36,000  Level FlightAware Transoceanic
Fri 12:19:00 PM 40.7543 -44.6166 249° West 441 507 36,000  Level FlightAware Transoceanic
Fri 12:20:00 PM 40.7102 -44.7657 249° West 441 507 36,000  Level FlightAware Transoceanic
Fri 12:21:00 PM 40.6660 -44.9146 249° West 441 507 36,000  Level FlightAware Transoceanic
Fri 12:22:00 PM 40.6215 -45.0633 248° West 441 507 36,000  Level FlightAware Transoceanic
Fri 12:23:00 PM 40.5768 -45.2118 248° West 441 507 36,000  Level FlightAware Transoceanic
Fri 12:24:00 PM 40.5320 -45.3601 248° West 441 507 36,000  Level FlightAware Transoceanic
Fri 12:25:00 PM 40.4869 -45.5082 248° West 441 507 36,000  Level FlightAware Transoceanic
Fri 12:25:11 PM 40.4500 -45.6167 248° West 440 506 36,000  Level New York Oceanic (ODAPS)
Fri 12:26:00 PM 40.4417 -45.6561 248° West 441 507 36,000  Level FlightAware Transoceanic
Fri 12:27:00 PM 40.3963 -45.8038 248° West 441 507 36,000  Level FlightAware Transoceanic
Fri 12:28:00 PM 40.3507 -45.9514 248° West 441 507 36,000  Level FlightAware Transoceanic
Fri 12:29:00 PM 40.3049 -46.0987 248° West 441 507 36,000  Level FlightAware Transoceanic
Fri 12:30:00 PM 40.2590 -46.2458 248° West 441 507 36,000  Level FlightAware Transoceanic
Fri 12:31:00 PM 40.1733 -46.5081 248° West 440 506 36,000  Level FlightAware Transoceanic
Fri 12:32:00 PM 40.1265 -46.6559 247° West 440 506 36,000  Level FlightAware Transoceanic
Fri 12:33:00 PM 40.0796 -46.8036 247° West 440 506 36,000  Level FlightAware Transoceanic
Fri 12:34:00 PM 40.0324 -46.9510 247° West 440 506 36,000  Level FlightAware Transoceanic
Fri 12:35:00 PM 39.9851 -47.0983 247° West 440 506 36,000  Level FlightAware Transoceanic
Fri 12:36:00 PM 39.9376 -47.2453 247° West 440 506 36,000  Level FlightAware Transoceanic
Fri 12:37:00 PM 39.8899 -47.3921 247° West 440 506 36,000  Level FlightAware Transoceanic
Fri 12:38:00 PM 39.8419 -47.5387 247° West 440 506 36,000  Level FlightAware Transoceanic
Fri 12:39:00 PM 39.7939 -47.6852 247° West 440 506 36,000  Level FlightAware Transoceanic
Fri 12:39:04 PM 39.7833 -47.7000 247° West 435 501 36,000  Level New York Oceanic (ODAPS)
Fri 12:40:00 PM 39.7456 -47.8314 247° West 440 506 36,000  Level FlightAware Transoceanic
Fri 12:41:00 PM 39.6972 -47.9774 247° West 440 506 36,000  Level FlightAware Transoceanic
Fri 12:42:00 PM 39.6485 -48.1232 247° West 440 506 36,000  Level FlightAware Transoceanic
Fri 12:43:00 PM 39.5997 -48.2688 246° West 440 506 36,000  Level FlightAware Transoceanic
Fri 12:44:00 PM 39.5507 -48.4142 246° West 440 506 36,000  Level FlightAware Transoceanic
Fri 12:45:00 PM 39.4949 -48.5686 246° West 435 501 36,000  Level FlightAware Transoceanic
Fri 12:46:00 PM 39.4462 -48.7126 246° West 435 501 36,000  Level FlightAware Transoceanic
Fri 12:47:00 PM 39.3973 -48.8565 246° West 435 501 36,000  Level FlightAware Transoceanic
Fri 12:48:00 PM 39.3483 -49.0001 246° West 435 501 36,000  Level FlightAware Transoceanic
Fri 12:49:00 PM 39.2990 -49.1436 246° West 435 501 36,000  Level FlightAware Transoceanic
Fri 12:50:00 PM 39.2496 -49.2868 246° West 435 501 36,000  Level FlightAware Transoceanic
Fri 12:51:00 PM 39.2001 -49.4299 246° West 435 501 36,000  Level FlightAware Transoceanic
Fri 12:52:00 PM 39.1503 -49.5727 246° West 435 501 36,000  Level FlightAware Transoceanic
Fri 12:52:56 PM 39.1167 -49.6833 245° Southwest 420 483 36,000  Level New York Oceanic (ODAPS)
Fri 12:53:00 PM 39.1004 -49.7153 246° West 435 501 36,000  Level FlightAware Transoceanic
Fri 12:54:00 PM 39.0503 -49.8578 246° West 435 501 36,000  Level FlightAware Transoceanic
Fri 12:55:00 PM 39.0000 -50.0000 234° Southwest 435 501 36,000  Level FlightAware Transoceanic
Fri 12:55:26 PM 39.0000 -50.0000 234° Southwest 413 475 36,000  Level New York Oceanic (ODAPS)
Fri 12:56:00 PM 38.9327 -50.1209 234° Southwest 435 501 36,000  Level FlightAware Transoceanic
Fri 12:57:00 PM 38.8653 -50.2416 234° Southwest 435 501 36,000  Level FlightAware Transoceanic
Fri 12:58:00 PM 38.7977 -50.3621 234° Southwest 435 501 36,000  Level FlightAware Transoceanic
Fri 12:59:00 PM 38.7300 -50.4823 234° Southwest 420 483 36,000  Level FlightAware Transoceanic
Fri 01:00:00 PM 38.6623 -50.6024 234° Southwest 420 483 36,000  Level FlightAware Transoceanic
Fri 01:01:00 PM 38.5943 -50.7222 234° Southwest 413 475 36,000  Level FlightAware Transoceanic
Fri 01:02:00 PM 38.5263 -50.8417 234° Southwest 413 475 36,000  Level FlightAware Transoceanic
Fri 01:03:00 PM 38.4581 -50.9610 234° Southwest 413 475 36,000  Level FlightAware Transoceanic
Fri 01:04:00 PM 38.3899 -51.0802 234° Southwest 413 475 36,000  Level FlightAware Transoceanic
Fri 01:05:00 PM 38.3214 -51.1991 234° Southwest 413 475 36,000  Level FlightAware Transoceanic
Fri 01:06:00 PM 38.2529 -51.3177 234° Southwest 413 475 36,000  Level FlightAware Transoceanic
Fri 01:06:47 PM 38.2167 -51.3833 234° Southwest 408 470 36,000  Level New York Oceanic (ODAPS)
Fri 01:07:00 PM 38.1843 -51.4361 234° Southwest 413 475 36,000  Level FlightAware Transoceanic
Fri 01:08:00 PM 38.1155 -51.5544 233° Southwest 413 475 36,000  Level FlightAware Transoceanic
Fri 01:09:00 PM 38.0466 -51.6724 233° Southwest 413 475 36,000  Level FlightAware Transoceanic
Fri 01:10:00 PM 37.9776 -51.7901 233° Southwest 413 475 36,000  Level FlightAware Transoceanic
Fri 01:11:00 PM 37.9085 -51.9077 233° Southwest 413 475 36,000  Level FlightAware Transoceanic
Fri 01:12:00 PM 37.8393 -52.0250 233° Southwest 413 475 36,000  Level FlightAware Transoceanic
Fri 01:13:00 PM 37.8095 -52.0777 233° Southwest 408 470 36,000  Level FlightAware Transoceanic
Fri 01:14:00 PM 37.7413 -52.1927 233° Southwest 408 470 36,000  Level FlightAware Transoceanic
Fri 01:15:00 PM 37.6729 -52.3075 233° Southwest 408 470 36,000  Level FlightAware Transoceanic
Fri 01:16:00 PM 37.6044 -52.4221 233° Southwest 408 470 36,000  Level FlightAware Transoceanic
Fri 01:17:00 PM 37.5359 -52.5364 233° Southwest 408 470 36,000  Level FlightAware Transoceanic
Fri 01:18:00 PM 37.4672 -52.6506 233° Southwest 408 470 36,000  Level FlightAware Transoceanic
Fri 01:19:00 PM 37.3984 -52.7645 233° Southwest 408 470 36,000  Level FlightAware Transoceanic
Fri 01:20:00 PM 37.3294 -52.8782 233° Southwest 408 470 36,000  Level FlightAware Transoceanic
Fri 01:20:39 PM 37.2667 -52.9833 233° Southwest 403 464 36,000  Level New York Oceanic (ODAPS)
Fri 01:21:00 PM 37.2604 -52.9917 233° Southwest 408 470 36,000  Level FlightAware Transoceanic
Fri 01:22:00 PM 37.1913 -53.1050 233° Southwest 408 470 36,000  Level FlightAware Transoceanic
Fri 01:23:00 PM 37.1221 -53.2181 232° Southwest 408 470 36,000  Level FlightAware Transoceanic
Fri 01:24:00 PM 37.0527 -53.3310 232° Southwest 408 470 36,000  Level FlightAware Transoceanic
Fri 01:25:00 PM 36.9833 -53.4437 232° Southwest 408 470 36,000  Level FlightAware Transoceanic
Fri 01:26:00 PM 36.9182 -53.5502 232° Southwest 403 464 36,000  Level FlightAware Transoceanic
Fri 01:27:00 PM 36.8482 -53.6629 232° Southwest 403 464 36,000  Level FlightAware Transoceanic
Fri 01:28:00 PM 36.7781 -53.7755 232° Southwest 403 464 36,000  Level FlightAware Transoceanic
Fri 01:29:00 PM 36.7079 -53.8878 232° Southwest 403 464 36,000  Level FlightAware Transoceanic
Fri 01:30:00 PM 36.6376 -54.0000 232° Southwest 403 464 36,000  Level FlightAware Transoceanic
Fri 01:31:00 PM 36.5672 -54.1119 232° Southwest 403 464 36,000  Level FlightAware Transoceanic
Fri 01:32:00 PM 36.4966 -54.2236 232° Southwest 403 464 36,000  Level FlightAware Transoceanic
Fri 01:33:00 PM 36.4260 -54.3351 232° Southwest 403 464 36,000  Level FlightAware Transoceanic
Fri 01:34:00 PM 36.3552 -54.4464 232° Southwest 403 464 36,000  Level FlightAware Transoceanic
Fri 01:34:31 PM 36.3167 -54.5000 232° Southwest 396 456 36,000  Level New York Oceanic (ODAPS)
Fri 01:35:00 PM 36.2844 -54.5575 232° Southwest 403 464 36,000  Level FlightAware Transoceanic
Fri 01:36:00 PM 36.2135 -54.6685 232° Southwest 403 464 36,000  Level FlightAware Transoceanic
Fri 01:37:00 PM 36.1424 -54.7792 231° Southwest 403 464 36,000  Level FlightAware Transoceanic
Fri 01:38:00 PM 36.0713 -54.8897 231° Southwest 403 464 36,000  Level FlightAware Transoceanic
Fri 01:39:00 PM 36.0000 -55.0000 245° Southwest 403 464 36,000  Level FlightAware Transoceanic
Fri 01:39:19 PM 36.0000 -55.0000 245° Southwest 394 453 36,000  Level New York Oceanic (ODAPS)
Fri 01:40:00 PM 35.9537 -55.1249 245° Southwest 396 456 36,000  Level FlightAware Transoceanic
Fri 01:41:00 PM 35.9073 -55.2496 245° Southwest 396 456 36,000  Level FlightAware Transoceanic
Fri 01:42:00 PM 35.8607 -55.3742 245° Southwest 396 456 36,000  Level FlightAware Transoceanic
Fri 01:43:00 PM 35.8141 -55.4986 245° Southwest 396 456 36,000  Level FlightAware Transoceanic
Fri 01:44:00 PM 35.7673 -55.6229 245° Southwest 396 456 36,000  Level FlightAware Transoceanic
Fri 01:45:00 PM 35.7270 -55.7293 245° Southwest 394 453 36,000  Level FlightAware Transoceanic
Fri 01:46:00 PM 35.6811 -55.8503 245° Southwest 394 453 36,000  Level FlightAware Transoceanic
Fri 01:47:00 PM 35.6351 -55.9713 245° Southwest 394 453 36,000  Level FlightAware Transoceanic
Fri 01:48:00 PM 35.5889 -56.0921 245° Southwest 394 453 36,000  Level FlightAware Transoceanic
Fri 01:48:23 PM 35.5833 -56.1333 245° Southwest 390 449 36,000  Level New York Oceanic (ODAPS)
Fri 01:49:00 PM 35.5426 -56.2127 245° Southwest 394 453 36,000  Level FlightAware Transoceanic
Fri 01:50:00 PM 35.4962 -56.3332 245° Southwest 394 453 36,000  Level FlightAware Transoceanic
Fri 01:51:00 PM 35.4497 -56.4536 245° Southwest 394 453 36,000  Level FlightAware Transoceanic
Fri 01:52:00 PM 35.4030 -56.5738 245° Southwest 394 453 36,000  Level FlightAware Transoceanic
Fri 01:53:00 PM 35.3563 -56.6939 244° Southwest 394 453 36,000  Level FlightAware Transoceanic
Fri 01:54:00 PM 35.3046 -56.8474 244° Southwest 390 449 36,000  Level FlightAware Transoceanic
Fri 01:55:00 PM 35.2578 -56.9660 244° Southwest 390 449 36,000  Level FlightAware Transoceanic
Fri 01:56:00 PM 35.2108 -57.0844 244° Southwest 390 449 36,000  Level FlightAware Transoceanic
Fri 01:57:00 PM 35.1637 -57.2026 244° Southwest 390 449 36,000  Level FlightAware Transoceanic
Fri 01:58:00 PM 35.1165 -57.3208 244° Southwest 390 449 36,000  Level FlightAware Transoceanic
Fri 01:59:00 PM 35.0692 -57.4388 244° Southwest 390 449 36,000  Level FlightAware Transoceanic
Fri 02:00:00 PM 35.0218 -57.5566 244° Southwest 390 449 36,000  Level FlightAware Transoceanic
Fri 02:01:00 PM 34.9743 -57.6743 244° Southwest 390 449 36,000  Level FlightAware Transoceanic
Fri 02:02:00 PM 34.9266 -57.7919 244° Southwest 390 449 36,000  Level FlightAware Transoceanic
Fri 02:02:15 PM 34.9167 -57.7833 244° Southwest 387 445 36,000  Level New York Oceanic (ODAPS)
Fri 02:03:00 PM 34.8788 -57.9093 244° Southwest 390 449 36,000  Level FlightAware Transoceanic
Fri 02:04:00 PM 34.8309 -58.0266 244° Southwest 390 449 36,000  Level FlightAware Transoceanic
Fri 02:05:00 PM 34.7829 -58.1438 243° Southwest 390 449 36,000  Level FlightAware Transoceanic
Fri 02:06:00 PM 34.7348 -58.2608 243° Southwest 390 449 36,000  Level FlightAware Transoceanic
Fri 02:07:00 PM 34.6866 -58.3777 243° Southwest 390 449 36,000  Level FlightAware Transoceanic
Fri 02:08:00 PM 34.6315 -58.4886 244° Southwest 387 445 36,000  Level FlightAware Transoceanic
Fri 02:09:00 PM 34.5836 -58.6057 244° Southwest 387 445 36,000  Level FlightAware Transoceanic
Fri 02:10:00 PM 34.5356 -58.7226 243° Southwest 387 445 36,000  Level FlightAware Transoceanic
Fri 02:11:00 PM 34.4874 -58.8394 243° Southwest 387 445 36,000  Level FlightAware Transoceanic
Fri 02:12:00 PM 34.4392 -58.9561 243° Southwest 387 445 36,000  Level FlightAware Transoceanic
Fri 02:13:00 PM 34.3908 -59.0726 243° Southwest 387 445 36,000  Level FlightAware Transoceanic
Fri 02:14:00 PM 34.3424 -59.1890 243° Southwest 387 445 36,000  Level FlightAware Transoceanic
Fri 02:15:00 PM 34.2938 -59.3052 243° Southwest 387 445 36,000  Level FlightAware Transoceanic
Fri 02:16:00 PM 34.2451 -59.4214 243° Southwest 387 445 36,000  Level FlightAware Transoceanic
Fri 02:16:07 PM 34.2500 -59.4167 243° Southwest 384 442 36,000  Level New York Oceanic (ODAPS)
Fri 02:17:00 PM 34.1963 -59.5374 243° Southwest 387 445 36,000  Level FlightAware Transoceanic
Fri 02:18:00 PM 34.1474 -59.6532 243° Southwest 387 445 36,000  Level FlightAware Transoceanic
Fri 02:19:00 PM 34.0984 -59.7690 243° Southwest 387 445 36,000  Level FlightAware Transoceanic
Fri 02:20:00 PM 34.0492 -59.8845 243° Southwest 387 445 36,000  Level FlightAware Transoceanic
Fri 02:21:00 PM 34.0000 -60.0000 252° West 387 445 36,000  Level FlightAware Transoceanic
Fri 02:21:17 PM 34.0000 -60.0000 252° West 400 460 36,000  Level New York Oceanic (ODAPS)
Fri 02:22:00 PM 33.9660 -60.1242 252° West 384 442 36,000  Level FlightAware Transoceanic
Fri 02:23:00 PM 33.9318 -60.2482 252° West 384 442 36,000  Level FlightAware Transoceanic
Fri 02:24:00 PM 33.8975 -60.3722 252° West 384 442 36,000  Level FlightAware Transoceanic
Fri 02:25:00 PM 33.8631 -60.4961 251° West 384 442 36,000  Level FlightAware Transoceanic
Fri 02:26:00 PM 33.8285 -60.6198 251° West 384 442 36,000  Level FlightAware Transoceanic
Fri 02:27:00 PM 33.7939 -60.7435 251° West 400 460 36,000  Level FlightAware Transoceanic
Fri 02:28:00 PM 33.7591 -60.8670 251° West 400 460 36,000  Level FlightAware Transoceanic
Fri 02:29:00 PM 33.7242 -60.9905 251° West 400 460 36,000  Level FlightAware Transoceanic
Fri 02:30:00 PM 33.6892 -61.1139 251° West 400 460 36,000  Level FlightAware Transoceanic
Fri 02:30:17 PM 33.6931 -61.1414 242° Southwest 459 528 36,000  Level New York Center
Fri 02:31:00 PM 33.6540 -61.2371 251° West 400 460 36,000  Level FlightAware Transoceanic
Fri 02:31:17 PM 33.6517 -61.2758 250° West 384 442 36,000  Level New York Center
Fri 02:32:00 PM 33.6187 -61.3603 251° West 400 460 36,000  Level FlightAware Transoceanic
Fri 02:32:17 PM 33.6164 -61.3819 248° West 397 457 36,000  Level New York Center
Fri 02:33:00 PM 33.5833 -61.4833 242° Southwest 400 460 36,000  Level FlightAware Transoceanic
Fri 02:33:17 PM 33.5817 -61.5231 254° West 392 451 36,000  Level New York Center
Fri 02:34:00 PM 33.5324 -61.6002 242° Southwest 400 460 36,000  Level FlightAware Transoceanic
Fri 02:34:17 PM 33.5303 -61.6383 242° Southwest 397 457 36,000  Level New York Center
Fri 02:35:17 PM 33.4928 -61.7494 248° West 397 457 36,000  Level New York Center
Fri 02:36:17 PM 33.4508 -61.8808 249° West 397 457 36,000  Level New York Center
Fri 02:37:17 PM 33.3944 -61.9936 239° Southwest 398 458 36,000  Level New York Center
Fri 02:38:17 PM 33.3458 -62.0958 240° Southwest 403 464 36,000  Level New York Center
Fri 02:39:17 PM 33.2881 -62.2208 241° Southwest 398 458 36,000  Level New York Center
Fri 02:40:17 PM 33.2394 -62.3250 241° Southwest 398 458 36,000  Level New York Center
Fri 02:41:17 PM 33.1858 -62.4544 244° Southwest 398 458 36,000  Level New York Center
Fri 02:42:17 PM 33.1353 -62.5636 241° Southwest 398 458 36,000  Level New York Center
Fri 02:43:17 PM 33.0881 -62.6672 241° Southwest 398 458 36,000  Level New York Center
Fri 02:44:17 PM 33.0300 -62.7917 241° Southwest 398 458 36,000  Level New York Center
Fri 02:45:17 PM 32.9772 -62.9078 242° Southwest 393 452 36,000  Level New York Center
Fri 02:46:17 PM 32.9339 -63.0108 243° Southwest 393 452 36,000  Level New York Center
Fri 02:47:17 PM 32.8772 -63.1319 241° Southwest 393 452 36,000  Level New York Center
Fri 02:48:17 PM 32.8275 -63.2353 240° Southwest 398 458 36,000  Level New York Center
Fri 02:49:17 PM 32.7708 -63.3586 241° Southwest 398 458 36,000  Level New York Center
Fri 02:50:17 PM 32.7217 -63.4739 243° Southwest 393 452 36,000  Level New York Center
Fri 02:51:17 PM 32.6717 -63.5769 240° Southwest 401 461 36,000  Level New York Center
Fri 02:52:17 PM 32.6144 -63.7000 241° Southwest 401 461 36,000  Level New York Center
Fri 02:53:17 PM 32.5625 -63.8100 241° Southwest 395 455 36,000  Level New York Center
Fri 02:54:17 PM 32.5125 -63.9150 241° Southwest 395 455 36,000  Level New York Center
Fri 02:55:17 PM 32.4550 -64.0400 241° Southwest 395 455 36,000  Level New York Center
Fri 02:56:17 PM 32.4008 -64.1497 240° Southwest 395 455 36,000  Level New York Center
Fri 02:57:17 PM 32.3542 -64.2492 241° Southwest 395 455 36,000  Level New York Center
Fri 02:58:17 PM 32.2942 -64.3739 240° Southwest 395 455 36,000  Level New York Center
Fri 02:59:17 PM 32.2456 -64.4733 240° Southwest 395 455 36,000  Level New York Center
Fri 03:00:17 PM 32.1911 -64.5875 241° Southwest 395 455 36,000  Level New York Center
Fri 03:01:17 PM 32.1328 -64.7092 241° Southwest 395 455 36,000  Level New York Center
Fri 03:02:17 PM 32.0858 -64.8103 241° Southwest 395 455 36,000  Level New York Center
Fri 03:03:17 PM 32.0292 -64.9317 241° Southwest 395 455 36,000  Level New York Center
Fri 03:04:17 PM 31.9744 -65.0453 240° Southwest 395 455 36,000  Level New York Center
Fri 03:05:17 PM 31.9289 -65.1411 241° Southwest 390 449 36,000  Level New York Center
Fri 03:06:17 PM 31.8681 -65.2622 239° Southwest 396 456 36,000  Level New York Center
Fri 03:07:17 PM 31.8147 -65.3728 240° Southwest 396 456 36,000  Level New York Center
Fri 03:08:17 PM 31.7672 -65.4733 241° Southwest 396 456 36,000  Level New York Center
Fri 03:09:17 PM 31.7058 -65.5939 239° Southwest 396 456 36,000  Level New York Center
Fri 03:10:17 PM 31.6522 -65.7044 240° Southwest 396 456 36,000  Level New York Center
Fri 03:11:17 PM 31.6022 -65.8044 240° Southwest 391 450 36,000  Level New York Center
Fri 03:12:17 PM 31.5428 -65.9269 240° Southwest 400 460 36,000  Level New York Center
Fri 03:13:17 PM 31.4947 -66.0244 240° Southwest 394 453 36,000  Level New York Center
Fri 03:14:17 PM 31.4328 -66.1444 239° Southwest 394 453 36,000 -150 Level New York Center
Fri 03:15:17 PM 31.3767 -66.2567 240° Southwest 400 460 35,700 -500 Descending New York Center
Fri 03:16:17 PM 31.3325 -66.3583 243° Southwest 400 460 35,000 -350 Descending New York Center
Fri 03:17:17 PM 31.2703 -66.4825 240° Southwest 405 466 35,000  Level New York Center
Fri 03:18:17 PM 31.2078 -66.5922 236° Southwest 410 472 35,000  Level New York Center
Fri 03:19:17 PM 31.1633 -66.6936 243° Southwest 405 466 35,000  Level New York Center
Fri 03:20:17 PM 31.1008 -66.8150 239° Southwest 410 472 35,000  Level New York Center
Fri 03:21:17 PM 31.0433 -66.9094 235° Southwest 410 472 35,000  Level New York Center
Fri 03:22:17 PM 30.9850 -67.0353 242° Southwest 410 472 35,000  Level New York Center
Fri 03:23:17 PM 30.9300 -67.1436 239° Southwest 404 465 35,000  Level New York Center
Fri 03:24:17 PM 30.8789 -67.2447 240° Southwest 409 471 35,000  Level New York Center
Fri 03:25:17 PM 30.8117 -67.3656 237° Southwest 409 471 35,000  Level New York Center
Fri 03:26:17 PM 30.7586 -67.4808 242° Southwest 414 476 35,000  Level New York Center
Fri 03:28:00 PM 30.6327 -67.6822 239° Southwest  Level FlightAware Approximate
Fri 03:35:00 PM 30.1768 -68.5504 239° Southwest  Level FlightAware Approximate
Fri 03:36:00 PM 30.1112 -68.6738 238° Southwest  Level FlightAware Approximate
Fri 03:37:00 PM 30.0455 -68.7970 238° Southwest  Level FlightAware Approximate
Fri 03:38:00 PM 29.9797 -68.9200 238° Southwest  Level FlightAware Approximate
Fri 03:39:00 PM 29.9137 -69.0429 238° Southwest  Level FlightAware Approximate
Fri 03:39:45 PM 30.0000 -68.9333 238° Southwest 409 471 35,000  Level New York Oceanic (ODAPS)
Fri 03:40:00 PM 29.8477 -69.1656 238° Southwest  Level FlightAware Approximate
Fri 03:41:00 PM 29.7815 -69.2881 238° Southwest  Level FlightAware Approximate
Fri 03:42:00 PM 29.7152 -69.4105 238° Southwest  Level FlightAware Approximate
Fri 03:43:00 PM 29.6478 -69.5320 236° Southwest  Level FlightAware Approximate
Fri 03:44:00 PM 29.5775 -69.6512 236° Southwest  Level FlightAware Approximate
Fri 03:45:00 PM 29.5071 -69.7703 236° Southwest  Level FlightAware Approximate
Fri 03:46:00 PM 29.5727 -69.7195 238° Southwest 409 471 35,000  Level FlightAware Transoceanic
Fri 03:47:00 PM 29.5113 -69.8312 238° Southwest 409 471 35,000  Level FlightAware Transoceanic
Fri 03:48:00 PM 29.4498 -69.9428 238° Southwest 409 471 35,000  Level FlightAware Transoceanic
Fri 03:49:00 PM 29.3882 -70.0543 238° Southwest 409 471 35,000  Level FlightAware Transoceanic
Fri 03:50:00 PM 29.3265 -70.1657 238° Southwest 409 471 35,000  Level FlightAware Transoceanic
Fri 03:51:00 PM 29.2647 -70.2769 237° Southwest 409 471 35,000  Level FlightAware Transoceanic
Fri 03:52:00 PM 29.2028 -70.3880 237° Southwest 409 471 35,000  Level FlightAware Transoceanic
Fri 03:53:00 PM 29.1408 -70.4989 237° Southwest 409 471 35,000  Level FlightAware Transoceanic
Fri 03:53:12 PM 29.1667 -70.4833 237° Southwest 405 466 35,000  Level New York Oceanic (ODAPS)
Fri 03:54:00 PM 29.0788 -70.6097 237° Southwest 409 471 35,000  Level FlightAware Transoceanic
Fri 03:55:00 PM 29.0166 -70.7204 237° Southwest 409 471 35,000  Level FlightAware Transoceanic
Fri 03:56:00 PM 28.9544 -70.8309 237° Southwest 409 471 35,000  Level FlightAware Transoceanic
Fri 03:57:00 PM 28.8920 -70.9414 237° Southwest 409 471 35,000  Level FlightAware Transoceanic
Fri 03:57:45 PM 28.8833 -71.0000 237° Southwest 419 482 35,000  Level New York Oceanic (ODAPS)
Fri 03:58:00 PM 28.8296 -71.0517 237° Southwest 409 471 35,000  Level FlightAware Transoceanic
Fri 03:59:00 PM 28.7886 -71.1491 237° Southwest 405 466 35,000  Level FlightAware Transoceanic
Fri 04:00:00 PM 28.7252 -71.2596 237° Southwest 405 466 35,000  Level FlightAware Transoceanic
Fri 04:01:00 PM 28.6618 -71.3699 237° Southwest 405 466 35,000  Level FlightAware Transoceanic
Fri 04:02:00 PM 28.5983 -71.4801 237° Southwest 405 466 35,000  Level FlightAware Transoceanic
Fri 04:03:00 PM 28.5347 -71.5902 237° Southwest 405 466 35,000  Level FlightAware Transoceanic
Fri 04:04:00 PM 28.4830 -71.6927 236° Southwest 419 482 35,000  Level FlightAware Transoceanic
Fri 04:05:00 PM 28.4159 -71.8076 236° Southwest 419 482 35,000  Level FlightAware Transoceanic
Fri 04:06:00 PM 28.3487 -71.9224 236° Southwest 419 482 35,000  Level FlightAware Transoceanic
Fri 04:06:17 PM 28.3167 -71.9167 237° Southwest 428 493 35,000  Level New York Oceanic (ODAPS)
Fri 04:07:00 PM 28.2815 -72.0370 236° Southwest 419 482 35,000  Level FlightAware Transoceanic
Fri 04:07:03 PM 28.2667 -72.0167 237° Southwest 428 493 35,000  Level New York Oceanic (ODAPS)
Fri 04:08:00 PM 28.2141 -72.1515 236° Southwest 419 482 35,000  Level FlightAware Transoceanic
Fri 04:09:00 PM 28.1467 -72.2659 236° Southwest 419 482 35,000  Level FlightAware Transoceanic
Fri 04:10:00 PM 28.0791 -72.3801 236° Southwest 419 482 35,000  Level FlightAware Transoceanic
Fri 04:11:00 PM 28.0115 -72.4942 236° Southwest 419 482 35,000  Level FlightAware Transoceanic
Fri 04:12:00 PM 27.9209 -72.6039 237° Southwest 428 493 35,000  Level FlightAware Transoceanic
Fri 04:13:00 PM 27.8656 -72.7076 237° Southwest 428 493 35,000  Level FlightAware Transoceanic
Fri 04:14:00 PM 27.7984 -72.8223 236° Southwest 428 493 35,000  Level FlightAware Transoceanic
Fri 04:15:00 PM 27.7312 -72.9368 236° Southwest 428 493 35,000  Level FlightAware Transoceanic
Fri 04:16:00 PM 27.6638 -73.0511 236° Southwest 428 493 35,000  Level FlightAware Transoceanic
Fri 04:17:00 PM 27.5963 -73.1654 236° Southwest 428 493 35,000  Level FlightAware Transoceanic
Fri 04:18:00 PM 27.5288 -73.2794 236° Southwest 428 493 35,000  Level FlightAware Transoceanic
Fri 04:19:00 PM 27.4611 -73.3934 236° Southwest 428 493 35,000  Level FlightAware Transoceanic
Fri 04:20:00 PM 27.3934 -73.5072 236° Southwest 428 493 35,000  Level FlightAware Transoceanic
Fri 04:20:55 PM 27.3667 -73.5500 236° Southwest 427 491 35,000  Level New York Oceanic (ODAPS)
Fri 04:21:00 PM 27.3256 -73.6209 236° Southwest 428 493 35,000  Level FlightAware Transoceanic
Fri 04:22:00 PM 27.2576 -73.7344 236° Southwest 428 493 35,000  Level FlightAware Transoceanic
Fri 04:23:00 PM 27.1896 -73.8478 236° Southwest 428 493 35,000  Level FlightAware Transoceanic
Fri 04:24:00 PM 27.1215 -73.9611 236° Southwest 428 493 35,000  Level FlightAware Transoceanic
Fri 04:25:00 PM 27.0533 -74.0742 236° Southwest 428 493 35,000  Level FlightAware Transoceanic
Fri 04:25:51 PM 27.0169 -74.1022 236° Southwest 470 541 35,000  Level Miami Center
Fri 04:26:00 PM 26.9850 -74.1872 236° Southwest 428 493 35,000  Level FlightAware Transoceanic
Fri 04:26:51 PM 26.9481 -74.2133 235° Southwest 465 535 35,000  Level Miami Center
Fri 04:27:00 PM 26.9167 -74.3000 237° Southwest 427 491 35,000  Level FlightAware Transoceanic
Fri 04:27:51 PM 26.8875 -74.3311 240° Southwest 452 520 35,000  Level Miami Center
Fri 04:28:00 PM 26.8549 -74.4051 237° Southwest 427 491 35,000  Level FlightAware Transoceanic
Fri 04:28:51 PM 26.8225 -74.4419 237° Southwest 441 507 35,000  Level Miami Center
Fri 04:29:00 PM 26.7931 -74.5101 237° Southwest 427 491 35,000  Level FlightAware Transoceanic
Fri 04:29:51 PM 26.7617 -74.5597 240° Southwest 436 502 35,000  Level Miami Center
Fri 04:30:00 PM 26.7312 -74.6150 237° Southwest 427 491 35,000  Level FlightAware Transoceanic
Fri 04:30:51 PM 26.7008 -74.6747 239° Southwest 436 502 35,000  Level Miami Center
Fri 04:31:00 PM 26.6693 -74.7198 236° Southwest 427 491 35,000  Level FlightAware Transoceanic
Fri 04:31:51 PM 26.6400 -74.7897 239° Southwest 436 502 35,000  Level Miami Center
Fri 04:32:51 PM 26.5831 -74.9047 241° Southwest 430 495 35,000  Level Miami Center
Fri 04:33:51 PM 26.5175 -75.0150 236° Southwest 430 495 35,000 500 Level Miami Center
Fri 04:34:51 PM 26.4628 -75.1364 243° Southwest 430 495 36,000 500 Climbing Miami Center
Fri 04:35:51 PM 26.3972 -75.2486 237° Southwest 430 495 36,000  Level Miami Center
Fri 04:36:51 PM 26.3378 -75.3631 240° Southwest 435 501 36,000  Level Miami Center
Fri 04:37:51 PM 26.2783 -75.4822 241° Southwest 435 501 36,000  Level Miami Center
Fri 04:38:51 PM 26.2167 -75.5964 239° Southwest 435 501 36,000  Level Miami Center
Fri 04:39:51 PM 26.1569 -75.7103 240° Southwest 435 501 36,000  Level Miami Center
Fri 04:40:51 PM 26.0953 -75.8244 239° Southwest 429 494 36,000  Level Miami Center
Fri 04:41:51 PM 26.0333 -75.9358 238° Southwest 429 494 36,000  Level Miami Center
Fri 04:42:51 PM 25.9692 -76.0497 238° Southwest 435 501 36,000  Level Miami Center
Fri 04:43:51 PM 25.9114 -76.1656 241° Southwest 435 501 36,000  Level Miami Center
Fri 04:44:51 PM 25.8511 -76.2769 239° Southwest 435 501 36,000  Level Miami Center
Fri 04:45:51 PM 25.7911 -76.3947 241° Southwest 435 501 36,000  Level Miami Center
Fri 04:46:51 PM 25.7286 -76.5036 238° Southwest 435 501 36,000  Level Miami Center
Fri 04:47:51 PM 25.6642 -76.6167 238° Southwest 435 501 36,000  Level Miami Center
Fri 04:48:51 PM 25.6036 -76.7319 240° Southwest 435 501 36,000  Level Miami Center
Fri 04:49:51 PM 25.5453 -76.8403 239° Southwest 430 495 36,000  Level Miami Center
Fri 04:50:51 PM 25.4825 -76.9531 238° Southwest 430 495 36,000  Level Miami Center
Fri 04:51:51 PM 25.4217 -77.0636 239° Southwest 430 495 36,000  Level Miami Center
Fri 04:52:51 PM 25.3589 -77.1783 239° Southwest 430 495 36,000  Level Miami Center
Fri 04:53:51 PM 25.3106 -77.2681 239° Southwest 430 495 36,000  Level Miami Center
Fri 04:54:51 PM 25.2456 -77.3894 239° Southwest 424 488 36,000  Level Miami Center
Fri 04:55:51 PM 25.1844 -77.5086 240° Southwest 434 499 36,000  Level Miami Center
Fri 04:56:51 PM 25.1169 -77.6253 237° Southwest 447 514 36,000  Level Miami Center
Fri 04:57:51 PM 25.0517 -77.7375 237° Southwest 447 514 36,000  Level Miami Center
Fri 04:58:51 PM 24.9881 -77.8492 238° Southwest 442 509 36,000  Level Miami Center
Fri 04:59:51 PM 24.9247 -77.9611 238° Southwest 442 509 36,000  Level Miami Center
Fri 05:00:51 PM 24.8611 -78.0750 238° Southwest 442 509 36,000  Level Miami Center
Fri 05:01:51 PM 24.7994 -78.1889 239° Southwest 442 509 36,000  Level Miami Center
Fri 05:02:51 PM 24.7378 -78.3003 239° Southwest 442 509 36,000  Level Miami Center
Fri 05:03:51 PM 24.6719 -78.4117 237° Southwest 436 502 36,000  Level Miami Center
Fri 05:04:51 PM 24.6122 -78.5253 240° Southwest 436 502 36,000  Level Miami Center
Fri 05:05:51 PM 24.5461 -78.6339 236° Southwest 436 502 36,000  Level Miami Center
Fri 05:06:51 PM 24.4758 -78.7561 238° Southwest 436 502 36,000  Level Miami Center
Fri 05:07:51 PM 24.4158 -78.8717 240° Southwest 436 502 36,000  Level Miami Center
Fri 05:08:51 PM 24.3494 -78.9800 236° Southwest 436 502 36,000  Level Miami Center
Fri 05:09:51 PM 24.2850 -79.0908 237° Southwest 436 502 36,000  Level Miami Center
Fri 05:10:51 PM 24.2186 -79.2011 237° Southwest 436 502 36,000  Level Miami Center
Fri 05:11:51 PM 24.1608 -79.2958 236° Southwest 436 502 36,000  Level Miami Center
Fri 05:12:51 PM 24.1003 -79.4039 238° Southwest 430 495 36,000  Level Miami Center
Fri 05:13:51 PM 24.0400 -79.5142 239° Southwest 430 495 36,000  Level Miami Center
Fri 05:14:51 PM 24.0003 -79.6314 250° West 415 478 36,000  Level Miami Center
Fri 05:15:51 PM 23.9686 -79.7536 254° West 415 478 36,000  Level Miami Center
Fri 05:16:51 PM 23.9369 -79.8756 254° West 421 484 36,000  Level Miami Center
Fri 05:18:00 PM 23.8319 -79.9830 223° Southwest  Level FlightAware Approximate
Fri 05:25:00 PM 23.3710 -80.7889 239° Southwest  Level FlightAware Approximate
Fri 05:26:00 PM 23.3064 -80.9055 239° Southwest  Level FlightAware Approximate
Fri 05:27:00 PM 23.2416 -81.0219 239° Southwest  Level FlightAware Approximate
Fri 05:28:00 PM 23.1787 -81.1396 241° Southwest  Level FlightAware Approximate
Fri 05:29:00 PM 23.1171 -81.2579 240° Southwest  Level FlightAware Approximate
Fri 05:30:00 PM 23.0553 -81.3761 240° Southwest  Level FlightAware Approximate
Fri 05:31:00 PM 23.0167 -81.5009 270° West  Level FlightAware Approximate
Fri 05:32:00 PM 23.0058 -81.6362 264° West  Level FlightAware Approximate
Fri 05:33:00 PM 23.0000 -81.7718 270° West  Level FlightAware Approximate
Fri 05:34:00 PM 23.0000 -81.9077 270° West  Level FlightAware Approximate
Fri 05:35:00 PM 22.9901 -82.0430 264° West  Level FlightAware Approximate
Fri 05:36:00 PM 22.9833 -82.1785 270° West  Level FlightAware Approximate
Fri 05:37:00 PM 22.9810 -82.3141 260° West  Level FlightAware Approximate
Fri 05:38:00 PM 22.9667 -82.4000 260° West  Level FlightAware Approximate
Fri 05:39:00 PM 22.9891 -82.4091 260° West  Level Estimated
Fri 05:40:00 PM 22.9891 -82.4091 260° West  Level Estimated
Fri 05:41:00 PM 22.9891 -82.4091 260° West  Level Estimated
Fri 05:42:00 PM 22.9891 -82.4091 260° West  Level Estimated
Fri 05:43:00 PM 22.9891 -82.4091 260° West  Level Estimated
Fri 05:44:00 PM 22.9891 -82.4091 260° West  Level Estimated
Fri 05:45:00 PM 22.9891 -82.4091 260° West  Level Estimated
Fri 05:46:00 PM 22.9891 -82.4091 260° West  Level Estimated
Fri 05:47:00 PM 22.9891 -82.4091 260° West  Level Estimated
Fri 05:48:00 PM 22.9891 -82.4091 260° West  Level Estimated
Fri 05:49:00 PM 22.9891 -82.4091 260° West  Level Estimated
Fri 05:50:00 PM 22.9891 -82.4091 260° West  Level Estimated
Fri 05:51:00 PM 22.9891 -82.4091 260° West  Level Estimated
Fri 05:52:00 PM 22.9891 -82.4091 260° West  Level Estimated
Fri 05:53:00 PM 22.9891 -82.4091 260° West  Level Estimated
Fri 05:54:00 PM 22.9891 -82.4091 260° West  Level Estimated
Fri 05:55:00 PM 22.9891 -82.4091 260° West  Level Estimated
Fri 05:56:00 PM 22.9891 -82.4091 260° West  Level Estimated
Fri 05:57:00 PM 22.9891 -82.4091 260° West  Level Estimated
Fri 05:58:00 PM 22.9891 -82.4091 260° West  Level Estimated
Fri 05:59:00 PM 22.9891 -82.4091 260° West  Level Estimated
Fri 06:00:00 PM 22.9891 -82.4091 260° West  Level Estimated
Fri 06:01:00 PM 22.9891 -82.4091 260° West  Level Estimated

Login

Don't have an account? Register now (free) for customized features, flight alerts, and more!